createdAt,value
2022-10-04T00:04:34.638Z,12.81
2022-10-04T00:09:44.390Z,12.83
2022-10-04T00:14:50.850Z,12.85
2022-10-04T00:19:55.470Z,12.70
2022-10-04T00:25:22.640Z,12.57
2022-10-04T00:30:27.068Z,12.77
2022-10-04T00:35:49.437Z,12.65
2022-10-04T00:40:57.084Z,12.42
2022-10-04T00:46:06.083Z,12.71
2022-10-04T00:51:16.286Z,12.59
2022-10-04T00:56:25.303Z,12.81
2022-10-04T01:01:30.344Z,12.58
2022-10-04T01:06:34.937Z,12.62
2022-10-04T01:11:42.436Z,12.83
2022-10-04T01:16:47.496Z,12.46
2022-10-04T01:22:04.124Z,12.69
2022-10-04T01:27:35.629Z,12.68
2022-10-04T01:32:40.251Z,12.73
2022-10-04T01:37:43.009Z,12.99
2022-10-04T01:42:51.455Z,13.16
2022-10-04T01:47:58.020Z,12.65
2022-10-04T01:53:09.446Z,12.07
2022-10-04T01:58:18.931Z,12.55
2022-10-04T02:03:29.235Z,11.89
2022-10-04T02:08:34.799Z,10.76
2022-10-04T02:13:41.906Z,10.68
2022-10-04T02:18:46.560Z,10.25
2022-10-04T02:23:49.793Z,10.09
2022-10-04T02:28:53.853Z,10.34
2022-10-04T02:33:59.357Z,9.75
2022-10-04T02:39:05.700Z,9.67
2022-10-04T02:44:17.624Z,9.59
2022-10-04T02:49:28.659Z,9.58
2022-10-04T02:54:39.287Z,9.53
2022-10-04T02:59:43.217Z,10.43
2022-10-04T03:04:45.862Z,10.30
2022-10-04T03:09:49.127Z,9.75
2022-10-04T03:14:54.448Z,9.97
2022-10-04T03:19:57.936Z,10.59
2022-10-04T03:25:01.564Z,10.26
2022-10-04T03:30:06.725Z,10.54
2022-10-04T03:35:29.528Z,10.11
2022-10-04T03:40:34.139Z,10.19
2022-10-04T03:45:38.077Z,9.64
2022-10-04T03:50:47.902Z,9.80
2022-10-04T03:55:50.658Z,10.33
2022-10-04T04:01:07.068Z,9.76
2022-10-04T04:06:16.278Z,9.89
2022-10-04T04:11:23.475Z,9.72
2022-10-04T04:16:28.377Z,9.67
2022-10-04T04:21:32.838Z,9.80
2022-10-04T04:26:40.269Z,9.87
2022-10-04T04:31:52.412Z,10.80
2022-10-04T04:37:00.112Z,10.70
2022-10-04T04:42:07.101Z,11.24
2022-10-04T04:47:19.293Z,11.45
2022-10-04T04:52:27.630Z,10.64
2022-10-04T04:57:30.480Z,11.51
2022-10-04T05:02:36.596Z,11.80
2022-10-04T05:07:39.297Z,11.75
2022-10-04T05:12:41.994Z,11.86
2022-10-04T05:17:46.199Z,11.94
2022-10-04T05:22:51.398Z,11.89
2022-10-04T05:27:55.598Z,11.29
2022-10-04T05:33:02.977Z,11.42
2022-10-04T05:38:10.550Z,11.69
2022-10-04T05:43:27.360Z,11.76
2022-10-04T05:48:31.627Z,11.36
2022-10-04T05:53:35.651Z,11.41
2022-10-04T05:58:53.752Z,11.14
2022-10-04T06:04:12.766Z,11.80
2022-10-04T06:09:31.552Z,11.79
2022-10-04T06:14:50.108Z,12.24
2022-10-04T06:20:14.780Z,12.42
2022-10-04T06:25:24.645Z,11.83
2022-10-04T06:30:34.403Z,11.89
2022-10-04T06:36:08.658Z,11.95
2022-10-04T06:41:40.499Z,12.50
2022-10-04T06:46:49.067Z,12.44
2022-10-04T06:52:25.096Z,12.94
2022-10-04T06:57:47.612Z,13.11
2022-10-04T07:02:53.155Z,12.68
2022-10-04T07:08:07.740Z,13.20
2022-10-04T07:13:41.341Z,13.09
2022-10-04T07:18:51.654Z,13.23
2022-10-04T07:23:58.857Z,13.18
2022-10-04T07:29:23.550Z,12.93
2022-10-04T07:34:30.774Z,13.18
2022-10-04T07:39:44.598Z,13.61
2022-10-04T07:45:11.358Z,13.33
2022-10-04T07:50:25.606Z,13.32
2022-10-04T07:55:33.156Z,13.52
2022-10-04T08:00:48.611Z,13.72
2022-10-04T08:06:00.143Z,14.55
2022-10-04T08:11:18.012Z,14.19
2022-10-04T08:16:35.905Z,13.74
2022-10-04T08:21:47.033Z,13.76
2022-10-04T08:26:58.720Z,13.56
2022-10-04T08:32:13.091Z,13.80
2022-10-04T08:37:30.204Z,13.72
2022-10-04T08:43:20.653Z,14.24
2022-10-04T08:48:46.339Z,14.27
2022-10-04T08:54:35.539Z,14.69
2022-10-04T09:00:09.800Z,14.60
2022-10-04T09:05:52.059Z,14.97
2022-10-04T09:11:22.078Z,14.40
2022-10-04T09:16:36.552Z,15.56
2022-10-04T09:21:51.144Z,16.04
2022-10-04T09:26:57.993Z,16.21
2022-10-04T09:32:33.325Z,16.21
2022-10-04T09:38:01.665Z,15.59
2022-10-04T09:43:27.694Z,15.71
2022-10-04T09:48:38.051Z,16.56
2022-10-04T09:53:54.914Z,16.33
2022-10-04T09:59:37.522Z,15.80
2022-10-04T10:04:49.343Z,16.97
2022-10-04T10:10:19.826Z,17.78
2022-10-04T10:15:31.265Z,20.00
2022-10-04T10:20:50.721Z,21.68
2022-10-04T10:26:32.101Z,24.04
2022-10-04T10:31:56.615Z,26.73
2022-10-04T10:37:11.815Z,24.99
2022-10-04T10:42:50.300Z,26.48
2022-10-04T10:48:01.757Z,25.68
2022-10-04T10:53:28.938Z,26.42
2022-10-04T10:59:01.758Z,31.43
2022-10-04T11:04:26.649Z,29.55
2022-10-04T11:09:35.284Z,21.95
2022-10-04T11:14:56.448Z,22.64
2022-10-04T11:20:35.355Z,22.22
2022-10-04T11:25:58.306Z,23.33
2022-10-04T11:31:41.917Z,25.44
2022-10-04T11:37:02.976Z,28.78
2022-10-04T11:42:22.211Z,31.03
2022-10-04T11:47:43.123Z,32.29
2022-10-04T11:53:09.311Z,33.27
2022-10-04T11:58:21.210Z,30.07
2022-10-04T12:03:48.935Z,31.29
2022-10-04T12:09:05.540Z,33.04
2022-10-04T12:14:24.485Z,36.13
2022-10-04T12:19:41.683Z,31.28
2022-10-04T12:24:59.685Z,30.65
2022-10-04T12:30:24.085Z,30.68
2022-10-04T12:35:34.795Z,30.46
2022-10-04T12:40:44.646Z,29.82
2022-10-04T12:46:06.461Z,29.84
2022-10-04T12:51:23.762Z,33.22
2022-10-04T12:56:45.926Z,28.90
2022-10-04T13:01:57.665Z,32.04
2022-10-04T13:07:19.364Z,29.92
2022-10-04T13:12:38.961Z,32.11
2022-10-04T13:17:50.458Z,31.98
2022-10-04T13:23:00.182Z,34.24
2022-10-04T13:28:07.091Z,34.08
2022-10-04T13:33:26.884Z,31.28
2022-10-04T13:39:11.604Z,26.73
2022-10-04T13:44:29.736Z,29.29
2022-10-04T13:49:52.263Z,30.54
2022-10-04T13:55:30.811Z,33.65
2022-10-04T14:00:53.956Z,33.76
2022-10-04T14:06:20.468Z,34.32
2022-10-04T14:11:44.538Z,33.27
2022-10-04T14:17:25.354Z,35.41
2022-10-04T14:23:02.909Z,34.76
2022-10-04T14:28:33.329Z,32.86
2022-10-04T14:33:55.107Z,30.62
2022-10-04T14:39:19.985Z,31.62
2022-10-04T14:44:54.110Z,28.73
2022-10-04T14:50:09.493Z,28.92
2022-10-04T14:55:26.409Z,27.44
2022-10-04T15:00:35.130Z,24.81
2022-10-04T15:05:46.147Z,22.85
2022-10-04T15:10:54.079Z,21.34
2022-10-04T15:16:11.458Z,20.71
2022-10-04T15:21:47.575Z,21.36
2022-10-04T15:27:16.949Z,20.30
2022-10-04T15:32:29.793Z,20.75
2022-10-04T15:37:44.279Z,20.32
2022-10-04T15:43:13.237Z,20.54
2022-10-04T15:48:33.002Z,20.19
2022-10-04T15:53:59.705Z,20.18
2022-10-04T15:59:31.728Z,19.81
2022-10-04T16:04:50.206Z,19.77
2022-10-04T16:10:00.980Z,19.40
2022-10-04T16:15:20.165Z,19.40
2022-10-04T16:20:40.611Z,19.17
2022-10-04T16:25:44.093Z,18.93
2022-10-04T16:31:11.176Z,18.92
2022-10-04T16:36:17.562Z,18.39
2022-10-04T16:41:34.981Z,18.25
2022-10-04T16:46:46.238Z,18.12
2022-10-04T16:52:17.109Z,17.87
2022-10-04T16:57:23.312Z,17.63
2022-10-04T17:02:49.222Z,17.35
2022-10-04T17:08:17.520Z,17.08
2022-10-04T17:13:26.752Z,17.23
2022-10-04T17:18:44.938Z,16.48
2022-10-04T17:24:03.530Z,16.99
2022-10-04T17:29:32.561Z,16.82
2022-10-04T17:34:54.615Z,16.50
2022-10-04T17:40:10.242Z,16.28
2022-10-04T17:45:41.667Z,16.20
2022-10-04T17:51:15.636Z,16.29
2022-10-04T17:56:30.302Z,15.87
2022-10-04T18:01:37.344Z,15.96
2022-10-04T18:06:49.221Z,15.97
2022-10-04T18:11:56.930Z,15.60
2022-10-04T18:17:05.649Z,15.32
2022-10-04T18:22:15.716Z,15.46
2022-10-04T18:27:22.529Z,15.74
2022-10-04T18:32:38.128Z,15.55
2022-10-04T18:37:42.339Z,15.30
2022-10-04T18:42:52.220Z,15.21
2022-10-04T18:47:56.114Z,15.07
2022-10-04T18:53:21.530Z,15.04
2022-10-04T18:58:51.997Z,15.24
2022-10-04T19:04:01.051Z,15.12
2022-10-04T19:09:18.040Z,14.86
2022-10-04T19:14:30.871Z,14.71
2022-10-04T19:19:43.142Z,14.76
2022-10-04T19:25:01.927Z,14.73
2022-10-04T19:30:16.436Z,14.81
2022-10-04T19:35:31.378Z,14.50
2022-10-04T19:40:48.483Z,13.78
2022-10-04T19:46:13.599Z,13.77
2022-10-04T19:51:28.302Z,13.94
2022-10-04T19:56:37.354Z,13.93
2022-10-04T20:01:40.102Z,13.87
2022-10-04T20:06:49.790Z,13.68
2022-10-04T20:11:54.629Z,12.76
2022-10-04T20:17:04.581Z,12.76
2022-10-04T20:22:30.337Z,13.13
2022-10-04T20:28:03.869Z,12.14
2022-10-04T20:33:06.478Z,12.67
2022-10-04T20:38:32.140Z,12.80
2022-10-04T20:43:54.802Z,12.67
2022-10-04T20:48:57.442Z,12.10
2022-10-04T20:54:01.483Z,11.70
2022-10-04T20:59:05.623Z,12.04
2022-10-04T21:04:15.341Z,10.94
2022-10-04T21:09:18.279Z,10.99
2022-10-04T21:14:26.235Z,11.69
2022-10-04T21:19:46.635Z,11.93
2022-10-04T21:24:55.361Z,12.33
2022-10-04T21:30:00.557Z,12.17
2022-10-04T21:35:03.666Z,12.48
2022-10-04T21:40:08.250Z,12.39
2022-10-04T21:45:12.371Z,11.96
2022-10-04T21:50:15.759Z,12.21
2022-10-04T21:55:18.356Z,12.35
2022-10-04T22:00:23.114Z,11.80
2022-10-04T22:05:28.434Z,12.13
2022-10-04T22:10:31.109Z,12.63
2022-10-04T22:15:35.061Z,12.83
2022-10-04T22:20:38.064Z,12.83
2022-10-04T22:25:41.298Z,13.04
2022-10-04T22:30:45.265Z,12.87
2022-10-04T22:35:47.836Z,12.82
2022-10-04T22:40:50.371Z,13.09
2022-10-04T22:45:55.812Z,13.21
2022-10-04T22:50:58.974Z,13.21
2022-10-04T22:56:01.562Z,13.22
2022-10-04T23:01:13.098Z,13.04
2022-10-04T23:06:16.691Z,12.96
2022-10-04T23:11:19.318Z,12.92
2022-10-04T23:16:24.100Z,13.05
2022-10-04T23:21:29.646Z,12.69
2022-10-04T23:26:38.112Z,12.57
2022-10-04T23:31:42.154Z,11.26
2022-10-04T23:36:45.544Z,10.96
2022-10-04T23:41:48.382Z,10.41
2022-10-04T23:46:52.713Z,10.33
2022-10-04T23:52:00.336Z,9.71
2022-10-04T23:57:02.967Z,9.37
